This is the latest recevied weather packets stored in our database for station/object PY2VE-13. If no packets are shown the sender has not sent any weather packets the latest 10 day(s).
| Time | Temp. | Humidity | Pressure | Rain* | Wind** | Luminosity | Snow |
|---|---|---|---|---|---|---|---|
| 1788166629 | 23.33° C | 63% | 1018.5 hPa | - | - | - | - |
| 1788165729 | 23.33° C | 63% | 1018.5 hPa | - | - | - | - |
| 1788164829 | 23.89° C | 61% | 1018.6 hPa | - | - | - | - |
| 1788163929 | 23.33° C | 63% | 1019.3 hPa | - | - | - | - |
| 1788163029 | 21.67° C | 70% | 1020.5 hPa | - | - | - | - |
| 1788162129 | 20.56° C | 73% | 1020.7 hPa | - | - | - | - |
| 1788161229 | 21.11° C | 72% | 1019.9 hPa | - | - | - | - |
| 1788160329 | 23.89° C | 60% | 1018 hPa | - | - | - | - |
| 1788159429 | 25.56° C | 54% | 1017.2 hPa | - | - | - | - |
| 1788158529 | 26.67° C | 51% | 1017.2 hPa | - | - | - | - |
| 1788157629 | 26.67° C | 51% | 1017.1 hPa | - | - | - | - |
| 1788156729 | 26.11° C | 52% | 1017.2 hPa | - | - | - | - |
| 1788155829 | 26.11° C | 52% | 1017 hPa | - | - | - | - |
| 1788154929 | 25.56° C | 53% | 1017.5 hPa | - | - | - | - |
| 1788154029 | 24.44° C | 57% | 1017.9 hPa | - | - | - | - |
| 1788153129 | 25° C | 56% | 1017.7 hPa | - | - | - | - |
| 1788152229 | 25° C | 55% | 1017.4 hPa | - | - | - | - |
| 1788151328 | 26.11° C | 52% | 1017.8 hPa | - | - | - | - |
| 1788150428 | 26.67° C | 51% | 1017.9 hPa | - | - | - | - |
| 1788149529 | 26.67° C | 51% | 1018.5 hPa | - | - | - | - |
| 1788148629 | 26.11° C | 52% | 1018.8 hPa | - | - | - | - |
| 1788147729 | 27.22° C | 50% | 1018.8 hPa | - | - | - | - |
| 1788146828 | 27.22° C | 50% | 1018.9 hPa | - | - | - | - |
| 1788145928 | 26.67° C | 51% | 1019.1 hPa | - | - | - | - |
| 1788145028 | 26.67° C | 52% | 1019 hPa | - | - | - | - |
* Rain since midnight (hover to see other rain measurements)
** Current wind speed in m/s (hover to see current wind gust speed)